sensor_id;sensor_type;location;lat;lon;timestamp;temperature;humidity
59067;DHT22;44854;50.838;4.438;2022-07-19T05:32:46;22.40;98.90
59067;DHT22;44854;50.838;4.438;2022-07-19T05:35:12;22.40;98.90
59067;DHT22;44854;50.838;4.438;2022-07-19T05:37:38;22.50;98.70
59067;DHT22;44854;50.838;4.438;2022-07-19T05:40:03;22.60;98.60
59067;DHT22;44854;50.838;4.438;2022-07-19T05:42:29;22.70;98.30
59067;DHT22;44854;50.838;4.438;2022-07-19T05:44:55;22.80;98.40
59067;DHT22;44854;50.838;4.438;2022-07-19T05:47:20;22.80;98.60
59067;DHT22;44854;50.838;4.438;2022-07-19T05:49:46;22.90;98.50
59067;DHT22;44854;50.838;4.438;2022-07-19T05:52:11;22.90;98.20
59067;DHT22;44854;50.838;4.438;2022-07-19T05:54:37;23.00;98.10
59067;DHT22;44854;50.838;4.438;2022-07-19T05:57:03;23.10;97.90
59067;DHT22;44854;50.838;4.438;2022-07-19T05:59:28;23.20;98.10
59067;DHT22;44854;50.838;4.438;2022-07-19T06:01:54;23.30;97.80
59067;DHT22;44854;50.838;4.438;2022-07-19T06:04:19;23.30;97.40
59067;DHT22;44854;50.838;4.438;2022-07-19T06:06:45;23.40;97.00
59067;DHT22;44854;50.838;4.438;2022-07-19T06:09:11;23.50;97.00
59067;DHT22;44854;50.838;4.438;2022-07-19T06:11:40;23.60;96.80
59067;DHT22;44854;50.838;4.438;2022-07-19T06:14:06;23.80;95.80
59067;DHT22;44854;50.838;4.438;2022-07-19T06:16:34;23.90;95.30
59067;DHT22;44854;50.838;4.438;2022-07-19T06:18:59;23.90;94.50
59067;DHT22;44854;50.838;4.438;2022-07-19T06:21:25;24.20;94.40
59067;DHT22;44854;50.838;4.438;2022-07-19T06:23:51;24.30;94.00
59067;DHT22;44854;50.838;4.438;2022-07-19T06:26:16;24.50;93.80
59067;DHT22;44854;50.838;4.438;2022-07-19T06:28:42;24.50;93.10
59067;DHT22;44854;50.838;4.438;2022-07-19T06:31:09;24.60;93.00
59067;DHT22;44854;50.838;4.438;2022-07-19T06:33:34;24.70;92.20
59067;DHT22;44854;50.838;4.438;2022-07-19T06:36:03;24.80;92.20
59067;DHT22;44854;50.838;4.438;2022-07-19T06:38:29;24.80;92.00
59067;DHT22;44854;50.838;4.438;2022-07-19T06:40:54;25.00;91.70
59067;DHT22;44854;50.838;4.438;2022-07-19T06:43:20;25.00;91.10
59067;DHT22;44854;50.838;4.438;2022-07-19T06:45:46;25.20;91.50
59067;DHT22;44854;50.838;4.438;2022-07-19T06:48:11;25.30;91.10
59067;DHT22;44854;50.838;4.438;2022-07-19T06:50:37;25.40;91.00
59067;DHT22;44854;50.838;4.438;2022-07-19T06:53:02;25.50;90.30
59067;DHT22;44854;50.838;4.438;2022-07-19T06:55:28;25.60;90.10
59067;DHT22;44854;50.838;4.438;2022-07-19T06:57:53;25.70;89.50
59067;DHT22;44854;50.838;4.438;2022-07-19T07:00:19;25.80;89.00
59067;DHT22;44854;50.838;4.438;2022-07-19T07:02:44;25.90;88.50
59067;DHT22;44854;50.838;4.438;2022-07-19T07:05:11;26.00;88.70
59067;DHT22;44854;50.838;4.438;2022-07-19T07:07:37;26.10;88.00
59067;DHT22;44854;50.838;4.438;2022-07-19T07:10:03;26.20;88.00
59067;DHT22;44854;50.838;4.438;2022-07-19T07:12:29;26.40;86.80
59067;DHT22;44854;50.838;4.438;2022-07-19T07:14:55;26.40;86.30
59067;DHT22;44854;50.838;4.438;2022-07-19T07:17:20;26.60;86.20
59067;DHT22;44854;50.838;4.438;2022-07-19T07:19:46;26.60;86.20
59067;DHT22;44854;50.838;4.438;2022-07-19T07:22:11;26.70;85.00
59067;DHT22;44854;50.838;4.438;2022-07-19T07:24:37;26.80;85.20
59067;DHT22;44854;50.838;4.438;2022-07-19T07:27:02;26.90;84.90
59067;DHT22;44854;50.838;4.438;2022-07-19T07:29:28;27.00;84.80
59067;DHT22;44854;50.838;4.438;2022-07-19T07:31:54;27.20;84.00
59067;DHT22;44854;50.838;4.438;2022-07-19T07:34:19;27.20;83.40
59067;DHT22;44854;50.838;4.438;2022-07-19T07:36:45;27.40;82.90
59067;DHT22;44854;50.838;4.438;2022-07-19T07:39:11;27.60;81.90
59067;DHT22;44854;50.838;4.438;2022-07-19T07:41:36;27.60;82.00
59067;DHT22;44854;50.838;4.438;2022-07-19T07:44:02;27.70;81.10
59067;DHT22;44854;50.838;4.438;2022-07-19T07:46:28;27.80;81.50
59067;DHT22;44854;50.838;4.438;2022-07-19T07:48:54;27.80;82.00
59067;DHT22;44854;50.838;4.438;2022-07-19T07:51:19;27.80;82.00
59067;DHT22;44854;50.838;4.438;2022-07-19T07:53:45;27.90;81.90
59067;DHT22;44854;50.838;4.438;2022-07-19T07:56:10;28.00;81.10
59067;DHT22;44854;50.838;4.438;2022-07-19T07:58:36;28.00;81.40
59067;DHT22;44854;50.838;4.438;2022-07-19T08:01:02;28.00;81.90
59067;DHT22;44854;50.838;4.438;2022-07-19T08:03:28;28.20;81.40
59067;DHT22;44854;50.838;4.438;2022-07-19T08:05:53;28.30;81.00
59067;DHT22;44854;50.838;4.438;2022-07-19T08:08:19;28.40;80.60
59067;DHT22;44854;50.838;4.438;2022-07-19T08:10:45;28.60;79.20
59067;DHT22;44854;50.838;4.438;2022-07-19T08:13:10;28.70;77.50
59067;DHT22;44854;50.838;4.438;2022-07-19T08:15:36;28.90;77.40
59067;DHT22;44854;50.838;4.438;2022-07-19T08:18:02;29.00;78.50
59067;DHT22;44854;50.838;4.438;2022-07-19T08:20:27;29.00;77.70
59067;DHT22;44854;50.838;4.438;2022-07-19T08:22:53;29.20;75.70
59067;DHT22;44854;50.838;4.438;2022-07-19T08:25:18;29.30;76.80
59067;DHT22;44854;50.838;4.438;2022-07-19T08:27:44;29.40;75.80
59067;DHT22;44854;50.838;4.438;2022-07-19T08:30:10;29.60;72.10
59067;DHT22;44854;50.838;4.438;2022-07-19T08:32:37;29.60;72.50
59067;DHT22;44854;50.838;4.438;2022-07-19T08:35:03;29.60;72.10
59067;DHT22;44854;50.838;4.438;2022-07-19T08:37:28;29.60;72.80
59067;DHT22;44854;50.838;4.438;2022-07-19T08:39:54;29.70;71.90
59067;DHT22;44854;50.838;4.438;2022-07-19T08:42:20;30.00;70.20
59067;DHT22;44854;50.838;4.438;2022-07-19T08:44:47;30.10;69.50
59067;DHT22;44854;50.838;4.438;2022-07-19T08:47:14;30.20;70.10
59067;DHT22;44854;50.838;4.438;2022-07-19T08:49:41;30.50;69.40
59067;DHT22;44854;50.838;4.438;2022-07-19T08:52:07;30.70;69.90
59067;DHT22;44854;50.838;4.438;2022-07-19T08:54:33;30.70;70.00
59067;DHT22;44854;50.838;4.438;2022-07-19T08:56:59;30.60;68.00
59067;DHT22;44854;50.838;4.438;2022-07-19T08:59:43;30.70;67.80
59067;DHT22;44854;50.838;4.438;2022-07-19T09:02:08;31.00;68.40
59067;DHT22;44854;50.838;4.438;2022-07-19T09:04:34;31.00;67.20
59067;DHT22;44854;50.838;4.438;2022-07-19T09:06:59;31.10;66.40
59067;DHT22;44854;50.838;4.438;2022-07-19T09:09:35;31.20;65.70
59067;DHT22;44854;50.838;4.438;2022-07-19T09:12:03;31.30;65.70
59067;DHT22;44854;50.838;4.438;2022-07-19T09:14:30;31.40;66.20
59067;DHT22;44854;50.838;4.438;2022-07-19T09:17:08;31.30;65.30
59067;DHT22;44854;50.838;4.438;2022-07-19T09:19:41;31.30;65.40
59067;DHT22;44854;50.838;4.438;2022-07-19T09:22:07;31.40;61.90
59067;DHT22;44854;50.838;4.438;2022-07-19T09:24:34;31.60;61.00
59067;DHT22;44854;50.838;4.438;2022-07-19T09:27:01;31.60;61.70
59067;DHT22;44854;50.838;4.438;2022-07-19T09:29:27;31.70;59.70
59067;DHT22;44854;50.838;4.438;2022-07-19T09:34:36;31.90;60.30
59067;DHT22;44854;50.838;4.438;2022-07-19T09:37:16;32.10;58.30
59067;DHT22;44854;50.838;4.438;2022-07-19T09:39:42;32.20;59.10
59067;DHT22;44854;50.838;4.438;2022-07-19T09:42:11;32.40;58.60
59067;DHT22;44854;50.838;4.438;2022-07-19T09:44:36;32.40;56.20
59067;DHT22;44854;50.838;4.438;2022-07-19T09:47:02;32.50;57.40
59067;DHT22;44854;50.838;4.438;2022-07-19T09:49:28;32.50;55.40
59067;DHT22;44854;50.838;4.438;2022-07-19T09:51:54;32.40;54.60
59067;DHT22;44854;50.838;4.438;2022-07-19T09:54:20;32.60;53.10
59067;DHT22;44854;50.838;4.438;2022-07-19T09:56:46;32.60;51.60
59067;DHT22;44854;50.838;4.438;2022-07-19T09:59:13;32.70;51.30
59067;DHT22;44854;50.838;4.438;2022-07-19T10:01:39;32.90;51.50
59067;DHT22;44854;50.838;4.438;2022-07-19T10:04:11;33.00;50.10
59067;DHT22;44854;50.838;4.438;2022-07-19T10:06:37;33.10;51.40
59067;DHT22;44854;50.838;4.438;2022-07-19T10:09:04;33.20;50.50
59067;DHT22;44854;50.838;4.438;2022-07-19T10:11:29;33.10;51.50
59067;DHT22;44854;50.838;4.438;2022-07-19T10:13:55;33.10;50.70
59067;DHT22;44854;50.838;4.438;2022-07-19T10:16:24;33.30;49.80
59067;DHT22;44854;50.838;4.438;2022-07-19T10:21:36;33.50;48.40
59067;DHT22;44854;50.838;4.438;2022-07-19T10:24:02;33.70;46.30
59067;DHT22;44854;50.838;4.438;2022-07-19T10:26:38;33.80;45.60
59067;DHT22;44854;50.838;4.438;2022-07-19T10:29:10;33.80;46.90
59067;DHT22;44854;50.838;4.438;2022-07-19T10:31:36;33.90;46.90
59067;DHT22;44854;50.838;4.438;2022-07-19T10:34:07;34.00;45.60
59067;DHT22;44854;50.838;4.438;2022-07-19T10:44:27;34.40;44.20
59067;DHT22;44854;50.838;4.438;2022-07-19T10:46:52;34.40;44.70
59067;DHT22;44854;50.838;4.438;2022-07-19T10:54:46;34.70;44.30
59067;DHT22;44854;50.838;4.438;2022-07-19T10:57:11;34.70;42.30
59067;DHT22;44854;50.838;4.438;2022-07-19T10:59:41;34.80;42.70
59067;DHT22;44854;50.838;4.438;2022-07-19T11:02:06;34.80;41.40
59067;DHT22;44854;50.838;4.438;2022-07-19T11:04:35;34.90;41.70
59067;DHT22;44854;50.838;4.438;2022-07-19T11:09:43;35.10;42.20
59067;DHT22;44854;50.838;4.438;2022-07-19T11:12:24;35.20;42.10
59067;DHT22;44854;50.838;4.438;2022-07-19T11:14:51;35.30;40.90
59067;DHT22;44854;50.838;4.438;2022-07-19T11:17:17;35.30;41.40
59067;DHT22;44854;50.838;4.438;2022-07-19T11:22:32;35.70;40.60
59067;DHT22;44854;50.838;4.438;2022-07-19T11:24:57;35.70;41.10
59067;DHT22;44854;50.838;4.438;2022-07-19T11:27:23;35.70;41.70
59067;DHT22;44854;50.838;4.438;2022-07-19T11:29:53;35.70;41.30
59067;DHT22;44854;50.838;4.438;2022-07-19T11:32:18;36.30;39.70
59067;DHT22;44854;50.838;4.438;2022-07-19T11:34:57;36.20;40.80
59067;DHT22;44854;50.838;4.438;2022-07-19T11:37:24;36.10;40.60
59067;DHT22;44854;50.838;4.438;2022-07-19T11:39:50;36.00;39.60
59067;DHT22;44854;50.838;4.438;2022-07-19T11:42:26;36.20;38.70
59067;DHT22;44854;50.838;4.438;2022-07-19T11:44:51;36.20;37.90
59067;DHT22;44854;50.838;4.438;2022-07-19T11:47:17;36.00;39.30
59067;DHT22;44854;50.838;4.438;2022-07-19T11:49:43;36.10;38.80
59067;DHT22;44854;50.838;4.438;2022-07-19T11:52:09;36.20;39.40
59067;DHT22;44854;50.838;4.438;2022-07-19T11:54:34;36.50;38.00
59067;DHT22;44854;50.838;4.438;2022-07-19T11:57:00;36.30;38.20
59067;DHT22;44854;50.838;4.438;2022-07-19T11:59:25;36.50;38.90
59067;DHT22;44854;50.838;4.438;2022-07-19T12:01:51;36.60;37.80
59067;DHT22;44854;50.838;4.438;2022-07-19T12:04:20;36.50;38.00
59067;DHT22;44854;50.838;4.438;2022-07-19T12:06:47;36.60;38.30
59067;DHT22;44854;50.838;4.438;2022-07-19T12:09:14;36.70;38.70
59067;DHT22;44854;50.838;4.438;2022-07-19T12:11:44;36.80;39.00
59067;DHT22;44854;50.838;4.438;2022-07-19T12:14:43;36.80;37.60
59067;DHT22;44854;50.838;4.438;2022-07-19T12:19:35;36.70;37.10
59067;DHT22;44854;50.838;4.438;2022-07-19T12:22:01;36.60;37.30
59067;DHT22;44854;50.838;4.438;2022-07-19T12:24:27;36.60;37.00
59067;DHT22;44854;50.838;4.438;2022-07-19T12:26:55;36.60;37.70
59067;DHT22;44854;50.838;4.438;2022-07-19T12:29:23;36.60;37.80
59067;DHT22;44854;50.838;4.438;2022-07-19T12:31:50;36.70;36.50
59067;DHT22;44854;50.838;4.438;2022-07-19T12:34:16;36.70;36.60
59067;DHT22;44854;50.838;4.438;2022-07-19T12:36:42;36.80;36.90
59067;DHT22;44854;50.838;4.438;2022-07-19T12:39:24;37.10;36.50
59067;DHT22;44854;50.838;4.438;2022-07-19T12:44:19;37.20;36.10
59067;DHT22;44854;50.838;4.438;2022-07-19T12:46:44;37.20;35.90
59067;DHT22;44854;50.838;4.438;2022-07-19T12:49:10;37.30;36.90
59067;DHT22;44854;50.838;4.438;2022-07-19T12:51:36;37.30;35.90
59067;DHT22;44854;50.838;4.438;2022-07-19T12:54:07;37.40;36.70
59067;DHT22;44854;50.838;4.438;2022-07-19T12:56:33;37.70;35.10
59067;DHT22;44854;50.838;4.438;2022-07-19T12:58:58;37.60;35.00
59067;DHT22;44854;50.838;4.438;2022-07-19T13:01:42;37.70;36.60
59067;DHT22;44854;50.838;4.438;2022-07-19T13:04:08;37.40;35.30
59067;DHT22;44854;50.838;4.438;2022-07-19T13:06:34;37.40;35.30
59067;DHT22;44854;50.838;4.438;2022-07-19T13:08:59;37.30;35.10
59067;DHT22;44854;50.838;4.438;2022-07-19T13:11:25;37.50;34.30
59067;DHT22;44854;50.838;4.438;2022-07-19T13:13:52;37.80;34.20
59067;DHT22;44854;50.838;4.438;2022-07-19T13:16:17;37.80;34.10
59067;DHT22;44854;50.838;4.438;2022-07-19T13:18:43;37.80;33.70
59067;DHT22;44854;50.838;4.438;2022-07-19T13:21:08;37.70;34.70
59067;DHT22;44854;50.838;4.438;2022-07-19T13:23:34;37.40;33.40
59067;DHT22;44854;50.838;4.438;2022-07-19T13:26:00;37.60;32.60
59067;DHT22;44854;50.838;4.438;2022-07-19T13:28:25;37.60;33.30
59067;DHT22;44854;50.838;4.438;2022-07-19T13:30:51;37.90;32.60
59067;DHT22;44854;50.838;4.438;2022-07-19T13:33:16;37.70;32.80
59067;DHT22;44854;50.838;4.438;2022-07-19T13:35:42;37.70;32.60
59067;DHT22;44854;50.838;4.438;2022-07-19T13:38:07;37.70;33.30
59067;DHT22;44854;50.838;4.438;2022-07-19T13:40:33;37.90;33.00
59067;DHT22;44854;50.838;4.438;2022-07-19T13:42:59;37.70;32.30
59067;DHT22;44854;50.838;4.438;2022-07-19T13:45:24;37.90;32.60
59067;DHT22;44854;50.838;4.438;2022-07-19T13:47:50;37.90;31.90
59067;DHT22;44854;50.838;4.438;2022-07-19T13:50:15;38.00;31.00
59067;DHT22;44854;50.838;4.438;2022-07-19T13:52:41;38.10;31.30
59067;DHT22;44854;50.838;4.438;2022-07-19T13:55:07;38.30;30.80
59067;DHT22;44854;50.838;4.438;2022-07-19T13:57:33;38.00;30.90
59067;DHT22;44854;50.838;4.438;2022-07-19T13:59:58;38.10;29.90
59067;DHT22;44854;50.838;4.438;2022-07-19T14:02:24;38.10;30.80
59067;DHT22;44854;50.838;4.438;2022-07-19T14:04:49;38.20;30.20
59067;DHT22;44854;50.838;4.438;2022-07-19T14:07:16;38.10;29.70
59067;DHT22;44854;50.838;4.438;2022-07-19T14:09:42;38.20;29.70
59067;DHT22;44854;50.838;4.438;2022-07-19T14:12:07;38.30;29.40
59067;DHT22;44854;50.838;4.438;2022-07-19T14:14:33;38.30;29.00
59067;DHT22;44854;50.838;4.438;2022-07-19T14:16:58;38.30;28.50
59067;DHT22;44854;50.838;4.438;2022-07-19T14:19:24;38.20;27.90
59067;DHT22;44854;50.838;4.438;2022-07-19T14:21:49;38.40;28.60
59067;DHT22;44854;50.838;4.438;2022-07-19T14:24:15;38.30;30.00
59067;DHT22;44854;50.838;4.438;2022-07-19T14:26:40;38.30;29.90
59067;DHT22;44854;50.838;4.438;2022-07-19T14:29:06;38.50;29.30
59067;DHT22;44854;50.838;4.438;2022-07-19T14:31:32;38.50;29.10
59067;DHT22;44854;50.838;4.438;2022-07-19T14:33:57;38.50;29.10
59067;DHT22;44854;50.838;4.438;2022-07-19T14:36:23;38.40;29.20
59067;DHT22;44854;50.838;4.438;2022-07-19T14:38:48;38.70;29.00
59067;DHT22;44854;50.838;4.438;2022-07-19T14:41:14;38.50;29.30
59067;DHT22;44854;50.838;4.438;2022-07-19T14:43:39;38.40;29.20
59067;DHT22;44854;50.838;4.438;2022-07-19T14:46:05;38.50;29.20
59067;DHT22;44854;50.838;4.438;2022-07-19T14:48:30;38.80;29.20
59067;DHT22;44854;50.838;4.438;2022-07-19T14:50:56;38.70;29.30
59067;DHT22;44854;50.838;4.438;2022-07-19T14:53:22;38.70;26.30
59067;DHT22;44854;50.838;4.438;2022-07-19T14:55:47;38.80;26.50
59067;DHT22;44854;50.838;4.438;2022-07-19T14:58:13;38.90;26.80
59067;DHT22;44854;50.838;4.438;2022-07-19T15:00:38;38.80;28.20
59067;DHT22;44854;50.838;4.438;2022-07-19T15:03:04;38.80;28.30
59067;DHT22;44854;50.838;4.438;2022-07-19T15:05:29;38.60;28.10
59067;DHT22;44854;50.838;4.438;2022-07-19T15:07:55;38.60;27.90
59067;DHT22;44854;50.838;4.438;2022-07-19T15:10:20;38.60;28.00
59067;DHT22;44854;50.838;4.438;2022-07-19T15:12:47;38.60;29.10
59067;DHT22;44854;50.838;4.438;2022-07-19T15:15:13;38.80;28.20
59067;DHT22;44854;50.838;4.438;2022-07-19T15:17:38;38.60;27.70
59067;DHT22;44854;50.838;4.438;2022-07-19T15:20:05;38.50;28.20
59067;DHT22;44854;50.838;4.438;2022-07-19T15:22:34;38.60;27.90
59067;DHT22;44854;50.838;4.438;2022-07-19T15:25:03;38.40;28.00
59067;DHT22;44854;50.838;4.438;2022-07-19T15:27:28;38.40;28.00
59067;DHT22;44854;50.838;4.438;2022-07-19T15:29:54;38.60;27.00
59067;DHT22;44854;50.838;4.438;2022-07-19T15:32:19;38.60;27.30
59067;DHT22;44854;50.838;4.438;2022-07-19T15:34:45;38.40;27.30
59067;DHT22;44854;50.838;4.438;2022-07-19T15:37:10;38.30;27.80
59067;DHT22;44854;50.838;4.438;2022-07-19T15:39:36;38.20;28.30
59067;DHT22;44854;50.838;4.438;2022-07-19T15:42:01;38.20;28.10
59067;DHT22;44854;50.838;4.438;2022-07-19T15:44:27;38.20;27.70
59067;DHT22;44854;50.838;4.438;2022-07-19T15:46:52;38.20;27.60
59067;DHT22;44854;50.838;4.438;2022-07-19T15:49:18;38.20;28.00
59067;DHT22;44854;50.838;4.438;2022-07-19T15:51:44;38.10;27.70
59067;DHT22;44854;50.838;4.438;2022-07-19T15:54:09;38.20;27.50
59067;DHT22;44854;50.838;4.438;2022-07-19T15:56:35;38.20;27.90
59067;DHT22;44854;50.838;4.438;2022-07-19T15:59:00;38.10;27.90
59067;DHT22;44854;50.838;4.438;2022-07-19T16:01:27;38.00;27.90
59067;DHT22;44854;50.838;4.438;2022-07-19T16:03:52;38.00;28.10
59067;DHT22;44854;50.838;4.438;2022-07-19T16:06:18;38.00;28.10
59067;DHT22;44854;50.838;4.438;2022-07-19T16:08:43;38.00;28.40
59067;DHT22;44854;50.838;4.438;2022-07-19T16:11:09;38.10;27.30
59067;DHT22;44854;50.838;4.438;2022-07-19T16:13:34;38.00;28.30
59067;DHT22;44854;50.838;4.438;2022-07-19T16:16:00;37.90;27.70
59067;DHT22;44854;50.838;4.438;2022-07-19T16:18:26;38.00;27.50
59067;DHT22;44854;50.838;4.438;2022-07-19T16:20:51;38.00;27.40
59067;DHT22;44854;50.838;4.438;2022-07-19T16:23:17;38.00;27.50
59067;DHT22;44854;50.838;4.438;2022-07-19T16:25:42;37.90;27.90
59067;DHT22;44854;50.838;4.438;2022-07-19T16:28:08;37.90;28.70
59067;DHT22;44854;50.838;4.438;2022-07-19T16:30:33;37.90;28.30
59067;DHT22;44854;50.838;4.438;2022-07-19T16:33:00;37.90;27.80
59067;DHT22;44854;50.838;4.438;2022-07-19T16:35:26;37.70;27.20
59067;DHT22;44854;50.838;4.438;2022-07-19T16:37:51;37.80;26.90
59067;DHT22;44854;50.838;4.438;2022-07-19T16:40:17;37.80;27.10
59067;DHT22;44854;50.838;4.438;2022-07-19T16:42:42;37.80;27.60
59067;DHT22;44854;50.838;4.438;2022-07-19T16:45:08;37.80;27.30
59067;DHT22;44854;50.838;4.438;2022-07-19T16:47:34;37.90;26.80
59067;DHT22;44854;50.838;4.438;2022-07-19T16:49:59;37.90;27.20
59067;DHT22;44854;50.838;4.438;2022-07-19T16:52:25;38.10;26.70
59067;DHT22;44854;50.838;4.438;2022-07-19T16:54:50;38.10;26.90
59067;DHT22;44854;50.838;4.438;2022-07-19T16:57:16;38.00;27.30
59067;DHT22;44854;50.838;4.438;2022-07-19T16:59:41;38.20;27.00
59067;DHT22;44854;50.838;4.438;2022-07-19T17:02:07;38.20;26.50
59067;DHT22;44854;50.838;4.438;2022-07-19T17:04:33;38.10;27.20
59067;DHT22;44854;50.838;4.438;2022-07-19T17:06:58;38.10;27.00
59067;DHT22;44854;50.838;4.438;2022-07-19T17:09:24;38.00;27.10
59067;DHT22;44854;50.838;4.438;2022-07-19T17:11:50;38.00;27.10
59067;DHT22;44854;50.838;4.438;2022-07-19T17:14:15;38.10;27.90
59067;DHT22;44854;50.838;4.438;2022-07-19T17:16:41;37.90;27.50
59067;DHT22;44854;50.838;4.438;2022-07-19T17:19:07;37.90;27.40
59067;DHT22;44854;50.838;4.438;2022-07-19T17:21:33;38.00;27.40
59067;DHT22;44854;50.838;4.438;2022-07-19T17:23:59;37.90;28.10
59067;DHT22;44854;50.838;4.438;2022-07-19T17:26:24;37.90;27.80
59067;DHT22;44854;50.838;4.438;2022-07-19T17:28:50;38.00;27.90
59067;DHT22;44854;50.838;4.438;2022-07-19T17:31:16;37.80;28.00
59067;DHT22;44854;50.838;4.438;2022-07-19T17:33:41;37.70;28.70
59067;DHT22;44854;50.838;4.438;2022-07-19T17:36:07;37.60;28.80
59067;DHT22;44854;50.838;4.438;2022-07-19T17:38:33;37.70;28.90
59067;DHT22;44854;50.838;4.438;2022-07-19T17:40:58;37.70;28.90
59067;DHT22;44854;50.838;4.438;2022-07-19T17:43:25;37.90;29.00
59067;DHT22;44854;50.838;4.438;2022-07-19T17:45:50;38.30;29.10
59067;DHT22;44854;50.838;4.438;2022-07-19T17:48:16;38.70;28.80
59067;DHT22;44854;50.838;4.438;2022-07-19T17:50:41;39.10;28.80
59067;DHT22;44854;50.838;4.438;2022-07-19T17:53:07;39.40;28.80
59067;DHT22;44854;50.838;4.438;2022-07-19T17:55:32;39.60;28.20
59067;DHT22;44854;50.838;4.438;2022-07-19T17:57:58;39.80;28.50
59067;DHT22;44854;50.838;4.438;2022-07-19T18:00:24;40.30;27.90
59067;DHT22;44854;50.838;4.438;2022-07-19T18:02:53;40.90;28.00
59067;DHT22;44854;50.838;4.438;2022-07-19T18:05:22;41.20;27.70
59067;DHT22;44854;50.838;4.438;2022-07-19T18:07:48;41.20;28.60
59067;DHT22;44854;50.838;4.438;2022-07-19T18:10:14;41.20;27.60
59067;DHT22;44854;50.838;4.438;2022-07-19T18:12:39;41.00;27.20
59067;DHT22;44854;50.838;4.438;2022-07-19T18:15:05;41.00;27.90
59067;DHT22;44854;50.838;4.438;2022-07-19T18:17:30;41.00;27.60
59067;DHT22;44854;50.838;4.438;2022-07-19T18:19:56;41.20;28.00
59067;DHT22;44854;50.838;4.438;2022-07-19T18:22:22;41.10;28.10
59067;DHT22;44854;50.838;4.438;2022-07-19T18:24:48;41.20;28.60
59067;DHT22;44854;50.838;4.438;2022-07-19T18:27:18;41.30;28.40
59067;DHT22;44854;50.838;4.438;2022-07-19T18:29:44;41.10;29.00
59067;DHT22;44854;50.838;4.438;2022-07-19T18:32:10;40.90;28.80
59067;DHT22;44854;50.838;4.438;2022-07-19T18:34:35;41.00;29.50
59067;DHT22;44854;50.838;4.438;2022-07-19T18:37:01;41.10;30.10
59067;DHT22;44854;50.838;4.438;2022-07-19T18:39:27;41.00;30.10
59067;DHT22;44854;50.838;4.438;2022-07-19T18:41:52;41.00;30.40
59067;DHT22;44854;50.838;4.438;2022-07-19T18:44:18;40.70;30.50
59067;DHT22;44854;50.838;4.438;2022-07-19T18:46:43;40.10;31.90
59067;DHT22;44854;50.838;4.438;2022-07-19T18:49:09;39.60;32.40
59067;DHT22;44854;50.838;4.438;2022-07-19T18:51:34;38.90;33.60
59067;DHT22;44854;50.838;4.438;2022-07-19T18:54:00;38.20;34.60
59067;DHT22;44854;50.838;4.438;2022-07-19T18:56:25;37.50;36.30
59067;DHT22;44854;50.838;4.438;2022-07-19T18:58:51;37.10;36.60
59067;DHT22;44854;50.838;4.438;2022-07-19T19:01:21;36.70;38.00
59067;DHT22;44854;50.838;4.438;2022-07-19T19:03:47;36.30;38.60
59067;DHT22;44854;50.838;4.438;2022-07-19T19:06:13;35.90;39.20
59067;DHT22;44854;50.838;4.438;2022-07-19T19:08:39;35.70;39.50
59067;DHT22;44854;50.838;4.438;2022-07-19T19:11:04;35.40;40.80
59067;DHT22;44854;50.838;4.438;2022-07-19T19:13:30;35.20;41.30
59067;DHT22;44854;50.838;4.438;2022-07-19T19:15:55;35.00;42.20
59067;DHT22;44854;50.838;4.438;2022-07-19T19:18:24;34.60;42.60
59067;DHT22;44854;50.838;4.438;2022-07-19T19:20:50;34.40;43.60
59067;DHT22;44854;50.838;4.438;2022-07-19T19:23:16;34.20;44.20
59067;DHT22;44854;50.838;4.438;2022-07-19T19:25:41;34.00;45.10
59067;DHT22;44854;50.838;4.438;2022-07-19T19:28:07;33.80;45.60
59067;DHT22;44854;50.838;4.438;2022-07-19T19:30:32;33.50;45.00
59067;DHT22;44854;50.838;4.438;2022-07-19T19:32:58;33.40;45.30
59067;DHT22;44854;50.838;4.438;2022-07-19T19:35:24;33.20;47.30
59067;DHT22;44854;50.838;4.438;2022-07-19T19:37:49;33.00;47.90
59067;DHT22;44854;50.838;4.438;2022-07-19T19:40:15;32.70;49.70
59067;DHT22;44854;50.838;4.438;2022-07-19T19:42:41;32.50;50.30
59067;DHT22;44854;50.838;4.438;2022-07-19T19:45:06;32.40;50.90
59067;DHT22;44854;50.838;4.438;2022-07-19T19:47:33;32.30;50.40
59067;DHT22;44854;50.838;4.438;2022-07-19T19:49:59;32.10;51.20
59067;DHT22;44854;50.838;4.438;2022-07-19T19:52:24;32.00;52.10
59067;DHT22;44854;50.838;4.438;2022-07-19T19:54:50;31.80;53.80
59067;DHT22;44854;50.838;4.438;2022-07-19T19:57:15;31.80;53.30
59067;DHT22;44854;50.838;4.438;2022-07-19T19:59:41;31.70;54.00
59067;DHT22;44854;50.838;4.438;2022-07-19T20:02:07;31.60;54.20
59067;DHT22;44854;50.838;4.438;2022-07-19T20:04:32;31.30;55.10
59067;DHT22;44854;50.838;4.438;2022-07-19T20:06:58;31.20;55.30
59067;DHT22;44854;50.838;4.438;2022-07-19T20:09:24;30.90;56.70
59067;DHT22;44854;50.838;4.438;2022-07-19T20:11:50;30.70;57.80
59067;DHT22;44854;50.838;4.438;2022-07-19T20:14:15;30.60;57.50
59067;DHT22;44854;50.838;4.438;2022-07-19T20:16:41;30.60;57.70
59067;DHT22;44854;50.838;4.438;2022-07-19T20:19:07;30.50;58.50
59067;DHT22;44854;50.838;4.438;2022-07-19T20:21:33;30.50;58.40
59067;DHT22;44854;50.838;4.438;2022-07-19T20:23:58;30.30;60.00
59067;DHT22;44854;50.838;4.438;2022-07-19T20:26:24;30.10;60.20
59067;DHT22;44854;50.838;4.438;2022-07-19T20:28:50;30.10;61.10
59067;DHT22;44854;50.838;4.438;2022-07-19T20:31:16;30.00;61.50
59067;DHT22;44854;50.838;4.438;2022-07-19T20:33:42;29.80;62.60
59067;DHT22;44854;50.838;4.438;2022-07-19T20:36:07;29.70;63.40
59067;DHT22;44854;50.838;4.438;2022-07-19T20:38:33;29.60;64.00
59067;DHT22;44854;50.838;4.438;2022-07-19T20:41:01;29.60;64.20
59067;DHT22;44854;50.838;4.438;2022-07-19T20:43:26;29.50;64.10
59067;DHT22;44854;50.838;4.438;2022-07-19T20:45:52;29.50;64.70
59067;DHT22;44854;50.838;4.438;2022-07-19T20:48:17;29.30;65.30
59067;DHT22;44854;50.838;4.438;2022-07-19T20:50:44;29.30;65.20
59067;DHT22;44854;50.838;4.438;2022-07-19T20:53:09;29.30;65.60
59067;DHT22;44854;50.838;4.438;2022-07-19T20:55:35;29.10;66.20
59067;DHT22;44854;50.838;4.438;2022-07-19T20:58:01;29.00;67.10
59067;DHT22;44854;50.838;4.438;2022-07-19T21:00:26;28.90;67.30
59067;DHT22;44854;50.838;4.438;2022-07-19T21:02:52;28.80;67.80
59067;DHT22;44854;50.838;4.438;2022-07-19T21:05:17;28.60;69.30
59067;DHT22;44854;50.838;4.438;2022-07-19T21:07:43;28.60;69.00
59067;DHT22;44854;50.838;4.438;2022-07-19T21:10:09;28.50;69.00
59067;DHT22;44854;50.838;4.438;2022-07-19T21:12:34;28.40;69.90
59067;DHT22;44854;50.838;4.438;2022-07-19T21:15:00;28.30;70.20
59067;DHT22;44854;50.838;4.438;2022-07-19T21:17:26;28.30;71.10
59067;DHT22;44854;50.838;4.438;2022-07-19T21:19:51;28.30;70.90
59067;DHT22;44854;50.838;4.438;2022-07-19T21:22:17;28.20;71.10
59067;DHT22;44854;50.838;4.438;2022-07-19T21:24:43;28.20;71.80